Terminal Aerodrome Forecast
Issued by NWS Omaha/Valley, NE

Home | Current Version | Previous Version | Text Only | Print | Product List | Glossary Off
Versions: 1 2 3 4 5 6 7 8 9 10 11 12 13 14 15 16 17 18 19 20 21 22 23 24 25 26 27 28 29 30 31 32 33 34 35 36 37 38 39 40 41 42

000
FTUS43 KOAX 201136
TAFOFK
TAF
KOFK 201136Z 2012/2112 08008KT P6SM SCT060 BKN120
      TEMPO 2012/2013 6SM -SHRA BKN060
     FM201500 15011KT P6SM SCT040 BKN120
     FM201900 16016G24KT P6SM SCT050
     FM210100 17012G20KT P6SM SCT050 BKN250 PROB30 2106/2110 5SM
      -TSRA BKN050CB=

USA.gov is the U.S. government's official web portal to all federal, state and local government web resources and services.